This is the latest recevied weather packets stored in our database for station/object KB1JL-13. If no packets are shown the sender has not sent any weather packets the latest 1 day(s).
| Time | Temp. | Humidity | Pressure | Rain* | Wind** | Luminosity | Snow |
|---|---|---|---|---|---|---|---|
| 1778014191 | 21.11° C | 65% | 1020.2 hPa | 0 mm | 3.13 m/s, 178° | 317 W/m² | - |
| 1778013889 | 20.56° C | 66% | 1019.9 hPa | 0 mm | 1.79 m/s, 197° | 320 W/m² | - |
| 1778013586 | 21.11° C | 64% | 1020.2 hPa | 0 mm | 1.79 m/s, 171° | 328 W/m² | - |
| 1778013283 | 21.11° C | 65% | 1020.2 hPa | 0 mm | 1.34 m/s, 221° | 375 W/m² | - |
| 1778012979 | 21.11° C | 66% | 1020.2 hPa | 0 mm | 1.79 m/s, 187° | 422 W/m² | - |
| 1778012676 | 21.11° C | 65% | 1020.5 hPa | 0 mm | 1.79 m/s, 183° | 427 W/m² | - |
| 1778012372 | 21.11° C | 64% | 1019.9 hPa | 0 mm | 4.47 m/s, 208° | 436 W/m² | - |
| 1778012069 | 21.67° C | 65% | 1020.5 hPa | 0 mm | 2.68 m/s, 190° | 433 W/m² | - |
| 1778011767 | 21.67° C | 64% | 1020.2 hPa | 0 mm | 3.13 m/s, 180° | 458 W/m² | - |
| 1778011464 | 21.67° C | 65% | 1020.5 hPa | 0 mm | 2.68 m/s, 188° | 468 W/m² | - |
| 1778011160 | 21.67° C | 65% | 1020.5 hPa | 0 mm | 2.24 m/s, 172° | 476 W/m² | - |
| 1778010857 | 21.67° C | 64% | 1020.5 hPa | 0 mm | 3.58 m/s, 188° | 486 W/m² | - |
| 1778010554 | 21.67° C | 65% | 1020.5 hPa | 0 mm | 3.13 m/s, 158° | 482 W/m² | - |
| 1778010251 | 21.11° C | 65% | 1020.2 hPa | 0 mm | 1.34 m/s, 190° | 498 W/m² | - |
| 1778009946 | 21.67° C | 65% | 1020.5 hPa | 0 mm | 2.68 m/s, 199° | 508 W/m² | - |
| 1778009644 | 21.67° C | 63% | 1020.5 hPa | 0 mm | 6.26 m/s, 208° | 507 W/m² | - |
| 1778009341 | 21.67° C | 64% | 1020.5 hPa | 0 mm | 0.45 m/s, 202° | 481 W/m² | - |
| 1778009039 | 22.22° C | 63% | 1020.5 hPa | 0 mm | 3.13 m/s, 178° | 567 W/m² | - |
| 1778008737 | 22.22° C | 63% | 1020.5 hPa | 0 mm | 3.58 m/s, 187° | 574 W/m² | - |
| 1778008435 | 22.22° C | 64% | 1020.9 hPa | 0 mm | 0.89 m/s, 186° | 580 W/m² | - |
| 1778008132 | 22.22° C | 64% | 1020.9 hPa | 0 mm | 2.24 m/s, 196° | 571 W/m² | - |
| 1778007827 | 22.22° C | 63% | 1020.9 hPa | 0 mm | 2.24 m/s, 230° | 569 W/m² | - |
| 1778007523 | 22.22° C | 63% | 1020.9 hPa | 0 mm | 0.89 m/s, 196° | 531 W/m² | - |
| 1778007220 | 22.78° C | 61% | 1020.9 hPa | 0 mm | 4.02 m/s, 169° | 540 W/m² | - |
| 1778006916 | 22.22° C | 63% | 1020.9 hPa | 0 mm | 2.24 m/s, 177° | 508 W/m² | - |
* Rain latest hour (hover to see other rain measurements)
** Current wind speed in m/s (hover to see current wind gust speed)